Time;durP1;ratioP1;P1;durP2;ratioP2;P2;SDS_P1;SDS_P2;PMS_P1;PMS_P2;Temp;Humidity;BMP_temperature;BMP_pressure;BME280_temperature;BME280_humidity;BME280_pressure;Samples;Min_cycle;Max_cycle;Signal;HPM_P1;HPM_P2
2023/02/01 00:01:49;;;;;;;38.35;13.13;;;;;;;4.72;100.00;101805.19;4999522;28;20030;-79
2023/02/01 00:04:14;;;;;;;42.55;12.48;;;;;;;4.69;100.00;101801.06;5000190;28;20087;-78
2023/02/01 00:06:40;;;;;;;36.75;13.10;;;;;;;4.66;100.00;101788.38;5006573;28;20203;-79
2023/02/01 00:09:05;;;;;;;35.75;14.63;;;;;;;4.77;100.00;101791.13;4981458;28;20041;-79
2023/02/01 00:11:31;;;;;;;33.42;14.30;;;;;;;4.88;100.00;101799.00;5003857;28;20022;-79
2023/02/01 00:13:57;;;;;;;32.72;12.93;;;;;;;4.76;100.00;101789.47;5006132;28;20072;-79
2023/02/01 00:16:26;;;;;;;32.22;12.43;;;;;;;4.81;100.00;101773.78;5007797;28;20042;-79
2023/02/01 00:18:57;;;;;;;41.90;13.38;;;;;;;4.83;100.00;101770.19;5003241;28;20041;-79
2023/02/01 00:21:23;;;;;;;41.40;12.15;;;;;;;4.91;100.00;101771.47;4990082;28;20041;-78
2023/02/01 00:23:48;;;;;;;32.42;11.05;;;;;;;4.81;100.00;101769.44;5006760;28;20042;-79
2023/02/01 00:26:19;;;;;;;31.75;10.68;;;;;;;4.80;100.00;101764.41;5005276;28;20114;-78
2023/02/01 00:28:45;;;;;;;34.42;10.20;;;;;;;4.85;100.00;101764.94;5009550;28;20037;-78
2023/02/01 00:31:12;;;;;;;31.35;11.00;;;;;;;4.89;100.00;101758.69;4991110;28;20033;-79
2023/02/01 00:33:37;;;;;;;23.63;9.02;;;;;;;4.87;100.00;101757.97;5003503;28;20573;-78
2023/02/01 00:36:05;;;;;;;44.05;10.50;;;;;;;4.91;100.00;101756.84;5012652;28;20089;-78
2023/02/01 00:38:33;;;;;;;33.20;8.63;;;;;;;4.69;100.00;101767.66;4992050;28;20040;-77
2023/02/01 00:41:05;;;;;;;27.25;7.43;;;;;;;4.68;100.00;101755.72;5010212;28;20431;-79
2023/02/01 00:43:31;;;;;;;24.23;7.30;;;;;;;4.58;100.00;101752.88;4986142;28;20093;-79
2023/02/01 00:45:57;;;;;;;30.63;7.03;;;;;;;4.52;100.00;101743.00;4994317;28;20660;-79
2023/02/01 00:48:23;;;;;;;25.42;6.50;;;;;;;4.60;100.00;101727.09;5009242;28;20128;-78
2023/02/01 00:50:49;;;;;;;33.78;7.80;;;;;;;4.58;100.00;101713.53;4990269;28;20125;-79
2023/02/01 00:53:14;;;;;;;26.10;6.47;;;;;;;4.57;100.00;101691.31;5005917;28;20034;-78
2023/02/01 00:55:40;;;;;;;24.85;5.70;;;;;;;4.39;100.00;101696.69;4990886;28;21881;-79
2023/02/01 00:58:09;;;;;;;20.17;5.95;;;;;;;4.37;100.00;101706.22;5003715;28;20387;-78
2023/02/01 01:00:34;;;;;;;18.92;6.53;;;;;;;4.38;100.00;101730.97;4990096;28;20029;-78
2023/02/01 01:03:00;;;;;;;21.52;5.60;;;;;;;4.31;100.00;101727.13;5003946;28;20147;-78
2023/02/01 01:05:27;;;;;;;27.95;5.88;;;;;;;4.36;100.00;101740.50;5004143;28;20030;-79
2023/02/01 01:07:53;;;;;;;19.65;5.28;;;;;;;4.23;100.00;101734.47;4988152;28;20045;-78
2023/02/01 01:10:19;;;;;;;25.50;6.97;;;;;;;4.27;100.00;101741.06;5007045;28;20037;-78
2023/02/01 01:12:44;;;;;;;28.00;5.97;;;;;;;4.25;100.00;101748.03;5002087;28;20041;-80
2023/02/01 01:15:10;;;;;;;22.55;5.43;;;;;;;4.27;100.00;101749.59;4986284;28;20041;-78
2023/02/01 01:17:35;;;;;;;23.08;5.03;;;;;;;4.22;100.00;101754.19;5020953;28;20465;-79
2023/02/01 01:20:01;;;;;;;23.98;4.85;;;;;;;4.26;100.00;101758.22;5006161;28;20037;-79
2023/02/01 01:22:26;;;;;;;20.00;4.00;;;;;;;4.16;100.00;101757.09;5010363;28;20128;-79
2023/02/01 01:24:52;;;;;;;20.25;5.13;;;;;;;4.13;100.00;101757.28;4987084;28;20025;-78
2023/02/01 01:27:22;;;;;;;20.52;5.47;;;;;;;4.03;100.00;101763.88;4987410;28;20040;-79
2023/02/01 01:29:48;;;;;;;23.15;4.60;;;;;;;4.07;100.00;101755.09;5021594;28;20621;-78
2023/02/01 01:32:13;;;;;;;21.83;4.20;;;;;;;4.08;100.00;101756.75;5003181;28;20029;-79
2023/02/01 01:34:39;;;;;;;19.52;4.63;;;;;;;4.00;100.00;101761.50;5007166;28;20036;-78
2023/02/01 01:37:04;;;;;;;28.80;4.38;;;;;;;3.94;100.00;101757.56;4989190;28;20076;-79
2023/02/01 01:39:30;;;;;;;22.70;5.47;;;;;;;3.91;100.00;101760.28;4992530;28;20029;-78
2023/02/01 01:41:55;;;;;;;23.30;4.13;;;;;;;3.98;100.00;101755.63;5010781;28;20021;-78
2023/02/01 01:44:57;;;;;;;18.25;4.35;;;;;;;4.02;100.00;101759.66;4994452;28;20672;-78
2023/02/01 01:47:24;;;;;;;20.98;5.35;;;;;;;3.87;100.00;101743.44;5011786;28;20037;-79
2023/02/01 01:49:50;;;;;;;31.50;5.00;;;;;;;3.92;100.00;101741.41;5009891;28;20029;-79
2023/02/01 01:52:16;;;;;;;29.08;4.95;;;;;;;3.85;100.00;101722.97;4994726;28;20033;-78
2023/02/01 01:54:45;;;;;;;27.75;3.88;;;;;;;3.84;100.00;101718.78;5006028;28;20037;-78
2023/02/01 01:57:20;;;;;;;18.25;3.97;;;;;;;3.88;100.00;101730.50;5011853;28;20141;-78
2023/02/01 01:59:55;;;;;;;25.70;4.85;;;;;;;3.82;100.00;101735.16;5021598;28;20124;-79
2023/02/01 02:02:20;;;;;;;25.08;3.70;;;;;;;3.75;100.00;101729.56;4994026;28;20140;-79
2023/02/01 02:04:47;;;;;;;22.52;5.00;;;;;;;3.80;100.00;101730.09;5007273;28;20260;-79
2023/02/01 02:07:28;;;;;;;21.63;3.40;;;;;;;3.86;100.00;101724.66;4995428;28;20108;-79
2023/02/01 02:09:54;;;;;;;30.90;4.57;;;;;;;3.86;99.85;101727.22;5006217;28;20061;-78
2023/02/01 02:12:20;;;;;;;23.40;3.72;;;;;;;3.78;100.00;101720.84;4994768;28;20046;-79
2023/02/01 02:14:46;;;;;;;16.08;4.82;;;;;;;3.85;100.00;101717.03;5009970;28;20032;-79
2023/02/01 02:17:32;;;;;;;18.45;3.60;;;;;;;3.67;100.00;101719.75;5012345;28;20041;-79
2023/02/01 02:20:16;;;;;;;25.98;4.05;;;;;;;3.71;100.00;101725.50;4990630;28;20065;-78
2023/02/01 02:23:00;;;;;;;23.60;3.47;;;;;;;3.67;100.00;101724.88;5013413;28;20401;-79
2023/02/01 02:26:01;;;;;;;30.20;3.88;;;;;;;3.66;100.00;101720.66;5010989;28;20034;-79
2023/02/01 02:28:29;;;;;;;29.20;5.60;;;;;;;3.72;100.00;101716.09;4997808;28;20048;-77
2023/02/01 02:31:04;;;;;;;15.40;3.92;;;;;;;3.67;100.00;101721.47;5013971;28;20037;-79
2023/02/01 02:33:48;;;;;;;32.38;3.90;;;;;;;3.69;100.00;101723.06;4997408;28;20501;-78
2023/02/01 02:36:22;;;;;;;25.13;4.95;;;;;;;3.69;100.00;101719.66;5023196;28;20413;-79
2023/02/01 02:39:38;;;;;;;21.38;4.53;;;;;;;3.67;100.00;101712.06;4992721;28;20046;-78
2023/02/01 02:48:16;;;;;;;;;;;;;;;3.76;100.00;101697.03;5021712;28;20045;-79
2023/02/01 03:04:44;;;;;;;28.63;5.75;;;;;;;3.87;100.00;101695.47;5026447;28;20080;-78
2023/02/01 03:07:35;;;;;;;34.80;6.85;;;;;;;3.95;100.00;101694.22;5012190;28;20091;-79
2023/02/01 03:10:07;;;;;;;29.52;5.10;;;;;;;3.96;100.00;101689.00;4956328;28;20407;-79
2023/02/01 03:15:43;;;;;;;32.47;5.07;;;;;;;3.93;100.00;101691.72;5007469;28;20196;-78
2023/02/01 03:18:35;;;;;;;22.73;4.60;;;;;;;3.96;100.00;101676.16;5007681;28;20041;-78
2023/02/01 03:21:04;;;;;;;29.08;6.35;;;;;;;3.92;100.00;101663.59;5007524;28;20124;-79
2023/02/01 03:23:34;;;;;;;31.50;4.15;;;;;;;3.96;100.00;101673.59;4990514;28;20042;-79
2023/02/01 03:26:02;;;;;;;25.90;4.63;;;;;;;4.04;100.00;101673.13;5009405;28;20032;-79
2023/02/01 03:28:33;;;;;;;33.45;5.97;;;;;;;4.13;100.00;101676.91;5007327;28;20060;-78
2023/02/01 03:30:59;;;;;;;42.42;6.97;;;;;;;4.04;100.00;101668.81;5005906;28;20099;-78
2023/02/01 03:33:27;;;;;;;30.67;4.45;;;;;;;4.06;100.00;101661.84;5003340;28;20434;-78
2023/02/01 03:36:13;;;;;;;26.85;4.90;;;;;;;4.05;100.00;101667.06;4991168;28;20029;-76
2023/02/01 03:39:15;;;;;;;30.50;5.97;;;;;;;4.11;100.00;101664.16;4989888;28;20038;-79
2023/02/01 03:41:45;;;;;;;30.50;6.68;;;;;;;4.10;100.00;101655.59;5000837;28;20068;-77
2023/02/01 03:44:32;;;;;;;38.63;10.45;;;;;;;4.10;100.00;101665.88;5011388;28;20113;-76
2023/02/01 03:47:16;;;;;;;48.90;15.00;;;;;;;4.08;100.00;101660.00;5007518;28;20447;-78
2023/02/01 03:49:55;;;;;;;41.40;9.50;;;;;;;4.21;100.00;101659.28;4989979;28;20666;-78
2023/02/01 03:52:27;;;;;;;48.22;12.85;;;;;;;4.09;100.00;101679.63;5007068;28;20034;-78
2023/02/01 03:54:54;;;;;;;45.43;16.83;;;;;;;4.06;100.00;101669.53;5023349;28;20032;-78
2023/02/01 03:57:26;;;;;;;43.33;12.32;;;;;;;4.15;100.00;101673.31;5004719;28;20116;-77
2023/02/01 03:59:52;;;;;;;41.95;9.20;;;;;;;4.14;100.00;101668.25;5010263;28;20033;-78
2023/02/01 04:02:18;;;;;;;34.35;7.85;;;;;;;4.12;100.00;101652.94;5004507;28;20061;-77
2023/02/01 04:04:43;;;;;;;21.55;5.47;;;;;;;4.17;100.00;101658.63;5011590;28;20045;-77
2023/02/01 04:07:10;;;;;;;28.45;7.18;;;;;;;4.23;100.00;101660.81;5005295;28;20091;-77
2023/02/01 04:09:35;;;;;;;41.88;9.45;;;;;;;4.20;100.00;101658.47;5009431;28;20449;-78
2023/02/01 04:12:02;;;;;;;38.10;6.95;;;;;;;4.12;100.00;101657.25;4989259;28;20038;-78
2023/02/01 04:14:27;;;;;;;31.58;6.65;;;;;;;4.24;100.00;101653.97;4998473;28;20033;-79
2023/02/01 04:16:53;;;;;;;29.75;5.70;;;;;;;4.24;100.00;101644.50;4988180;28;20099;-78
2023/02/01 04:19:18;;;;;;;32.17;9.43;;;;;;;4.22;100.00;101645.50;5009546;28;20033;-80
2023/02/01 04:21:44;;;;;;;31.15;10.07;;;;;;;4.20;100.00;101622.53;5020401;28;20034;-77
2023/02/01 04:24:10;;;;;;;46.13;10.52;;;;;;;4.10;100.00;101629.13;5009106;28;20026;-78
2023/02/01 04:26:35;;;;;;;35.75;6.82;;;;;;;4.06;100.00;101620.78;4993896;28;20025;-78
2023/02/01 04:29:01;;;;;;;40.35;8.18;;;;;;;4.08;100.00;101623.25;4999393;28;20568;-79
2023/02/01 04:31:27;;;;;;;31.08;7.28;;;;;;;4.04;100.00;101638.00;5008173;28;20029;-78
2023/02/01 04:33:54;;;;;;;35.60;9.60;;;;;;;4.04;100.00;101643.16;5003564;28;20037;-79
2023/02/01 04:36:21;;;;;;;39.30;9.43;;;;;;;4.02;100.00;101634.72;4990270;28;20041;-79
2023/02/01 04:38:48;;;;;;;27.25;5.45;;;;;;;4.03;100.00;101633.81;5009675;28;20038;-78
2023/02/01 04:41:13;;;;;;;37.05;8.68;;;;;;;3.97;100.00;101631.59;4995511;28;20045;-78
2023/02/01 04:43:39;;;;;;;38.33;6.55;;;;;;;4.00;100.00;101630.59;4991720;28;20048;-80
2023/02/01 04:46:04;;;;;;;41.42;7.10;;;;;;;3.97;100.00;101623.09;5007828;28;20048;-78
2023/02/01 04:48:30;;;;;;;35.17;8.45;;;;;;;3.96;100.00;101627.41;4988180;28;20042;-78
2023/02/01 04:50:56;;;;;;;40.45;8.93;;;;;;;3.99;99.96;101632.31;5023091;28;20030;-76
2023/02/01 04:53:21;;;;;;;46.60;12.48;;;;;;;3.97;100.00;101641.03;5009870;28;20037;-79
2023/02/01 04:55:48;;;;;;;54.17;11.20;;;;;;;3.96;100.00;101647.13;5003410;28;20034;-78
2023/02/01 04:58:14;;;;;;;33.13;7.88;;;;;;;3.93;100.00;101645.53;5007426;28;20038;-78
2023/02/01 05:00:39;;;;;;;27.83;5.25;;;;;;;4.01;99.75;101656.19;5007363;28;20541;-78
2023/02/01 05:03:05;;;;;;;27.67;4.55;;;;;;;3.97;99.14;101656.44;5003030;28;20048;-78
2023/02/01 05:05:31;;;;;;;40.05;5.30;;;;;;;4.01;99.75;101658.75;5005216;28;20398;-78
2023/02/01 05:07:56;;;;;;;36.33;4.38;;;;;;;4.02;99.32;101659.56;5007960;28;20514;-78
2023/02/01 05:10:21;;;;;;;18.75;4.00;;;;;;;3.97;99.50;101641.88;4996455;28;20041;-79
2023/02/01 05:15:31;;;;;;;30.27;5.75;;;;;;;3.99;99.77;101647.72;5005570;28;20372;-78
2023/02/01 05:17:57;;;;;;;22.33;4.70;;;;;;;3.86;99.81;101652.78;5004385;28;20073;-78
2023/02/01 05:20:23;;;;;;;26.33;3.22;;;;;;;3.84;100.00;101659.75;5010119;28;20033;-79
2023/02/01 05:22:49;;;;;;;28.95;5.13;;;;;;;3.93;100.00;101662.69;5005334;28;20084;-78
2023/02/01 05:25:14;;;;;;;39.15;5.68;;;;;;;4.06;99.61;101661.84;5022135;28;20029;-79
2023/02/01 05:27:40;;;;;;;39.38;5.22;;;;;;;3.93;99.05;101654.97;5004954;28;20057;-79
2023/02/01 05:30:06;;;;;;;24.08;3.80;;;;;;;3.94;99.67;101654.06;5008361;28;20037;-77
2023/02/01 05:32:32;;;;;;;23.15;4.97;;;;;;;3.86;99.78;101647.66;4992446;28;20100;-78
2023/02/01 05:34:57;;;;;;;36.85;5.13;;;;;;;3.91;99.90;101629.41;5008558;28;20045;-78
2023/02/01 05:37:23;;;;;;;39.85;4.30;;;;;;;3.83;100.00;101642.69;5021371;28;20091;-78
2023/02/01 05:39:48;;;;;;;30.10;5.00;;;;;;;3.77;100.00;101648.22;5021613;28;20037;-78
2023/02/01 05:42:14;;;;;;;34.00;4.95;;;;;;;3.68;100.00;101644.44;4997530;28;20049;-78
2023/02/01 05:44:39;;;;;;;28.15;3.95;;;;;;;3.81;100.00;101643.72;4993966;28;20026;-77
2023/02/01 05:47:05;;;;;;;28.67;3.95;;;;;;;3.86;100.00;101641.69;4993255;28;20045;-78
2023/02/01 05:49:30;;;;;;;32.38;4.60;;;;;;;3.77;99.77;101634.53;4998105;28;20026;-79
2023/02/01 05:51:56;;;;;;;25.42;4.03;;;;;;;3.84;100.00;101630.69;5011066;28;20506;-78
2023/02/01 05:54:21;;;;;;;29.95;3.45;;;;;;;3.88;99.72;101644.97;5019420;28;20477;-78
2023/02/01 05:56:46;;;;;;;22.70;3.90;;;;;;;3.87;99.40;101646.72;5001132;28;20041;-78
2023/02/01 05:59:12;;;;;;;34.25;3.60;;;;;;;3.73;99.98;101644.19;5009629;28;20033;-78
2023/02/01 06:01:37;;;;;;;27.55;4.15;;;;;;;3.80;99.95;101647.19;5024811;28;20026;-78
2023/02/01 06:04:03;;;;;;;36.15;4.50;;;;;;;3.80;100.00;101642.88;4993367;28;20038;-77
2023/02/01 06:06:29;;;;;;;33.97;3.50;;;;;;;3.79;99.97;101640.41;5007406;28;20034;-78
2023/02/01 06:08:54;;;;;;;31.17;3.60;;;;;;;3.70;99.98;101628.97;4995023;28;20518;-78
2023/02/01 06:11:20;;;;;;;25.63;3.70;;;;;;;3.77;100.00;101637.94;4993877;28;20029;-78
2023/02/01 06:13:45;;;;;;;30.20;5.15;;;;;;;3.75;100.00;101644.06;5005966;28;20112;-79
2023/02/01 06:16:10;;;;;;;38.75;4.60;;;;;;;3.78;99.97;101649.84;5013108;28;20517;-78
2023/02/01 06:18:42;;;;;;;19.55;3.65;;;;;;;3.82;100.00;101650.50;5004226;28;20495;-81
2023/02/01 06:21:08;;;;;;;31.58;4.45;;;;;;;3.85;100.00;101637.47;5013880;28;20070;-78
2023/02/01 06:23:34;;;;;;;30.63;3.45;;;;;;;3.93;100.00;101645.53;5009275;28;20045;-77
2023/02/01 06:26:03;;;;;;;29.52;4.70;;;;;;;3.89;100.00;101650.03;4994322;28;20112;-77
2023/02/01 06:28:29;;;;;;;28.95;4.70;;;;;;;3.91;100.00;101657.63;5027445;28;20038;-77
2023/02/01 06:30:57;;;;;;;20.73;4.07;;;;;;;3.97;100.00;101659.81;5010193;28;20030;-76
2023/02/01 06:33:26;;;;;;;29.02;3.95;;;;;;;4.03;100.00;101653.50;4996152;28;20042;-78
2023/02/01 06:35:59;;;;;;;31.00;4.75;;;;;;;3.98;100.00;101647.84;5013530;28;20033;-78
2023/02/01 06:38:26;;;;;;;;;;;;;;;3.99;100.00;101659.75;5003868;28;20371;-80
2023/02/01 06:40:56;;;;;;;23.23;3.63;;;;;;;4.08;99.93;101656.63;5009989;28;20370;-78
2023/02/01 06:43:25;;;;;;;30.65;5.25;;;;;;;4.04;99.75;101648.28;5005360;28;20052;-78
2023/02/01 06:45:51;;;;;;;24.70;3.85;;;;;;;4.14;99.93;101652.84;5012034;28;20041;-77
2023/02/01 06:48:18;;;;;;;29.35;4.45;;;;;;;4.04;100.00;101645.72;4993116;28;20104;-78
2023/02/01 06:50:43;;;;;;;21.65;3.17;;;;;;;4.05;100.00;101643.97;4991892;28;20049;-79
2023/02/01 06:53:09;;;;;;;34.10;4.93;;;;;;;4.09;99.98;101650.59;4984474;28;20048;-80
2023/02/01 06:55:35;;;;;;;26.50;5.32;;;;;;;4.17;99.88;101657.81;5022409;28;20034;-78
2023/02/01 06:58:01;;;;;;;29.30;5.80;;;;;;;4.19;100.00;101658.56;5004242;28;20041;-78
2023/02/01 07:00:27;;;;;;;33.40;4.60;;;;;;;4.15;99.52;101654.53;5005528;28;20033;-79
2023/02/01 07:02:57;;;;;;;27.17;4.38;;;;;;;4.13;100.00;101656.38;4991890;28;20038;-77
2023/02/01 07:05:23;;;;;;;28.17;3.83;;;;;;;4.24;100.00;101670.19;5013382;28;20044;-78
2023/02/01 07:07:48;;;;;;;25.50;4.38;;;;;;;4.32;99.39;101668.91;4991623;28;20045;-78
2023/02/01 07:10:14;;;;;;;31.20;6.57;;;;;;;4.27;99.66;101669.16;5001297;28;20068;-78
2023/02/01 07:12:39;;;;;;;25.52;3.60;;;;;;;4.20;99.84;101670.44;5022032;28;20598;-76
2023/02/01 07:15:06;;;;;;;34.78;4.97;;;;;;;4.27;99.29;101676.88;5012753;28;20092;-78
2023/02/01 07:17:31;;;;;;;37.70;3.72;;;;;;;4.27;100.00;101664.84;5024343;28;20091;-78
2023/02/01 07:19:59;;;;;;;41.60;4.47;;;;;;;4.23;100.00;101685.69;5008800;28;20033;-76
2023/02/01 07:22:25;;;;;;;22.15;3.53;;;;;;;4.26;100.00;101668.34;5008938;28;20048;-79
2023/02/01 07:24:50;;;;;;;23.60;4.75;;;;;;;4.22;100.00;101666.03;4993919;28;20033;-76
2023/02/01 07:27:16;;;;;;;38.90;4.35;;;;;;;4.24;99.95;101672.75;5025929;28;20034;-76
2023/02/01 07:29:41;;;;;;;23.85;4.63;;;;;;;4.29;99.70;101667.31;5012595;28;20414;-78
2023/02/01 07:32:07;;;;;;;22.58;4.20;;;;;;;4.39;99.18;101667.59;4997205;28;20125;-79
2023/02/01 07:34:33;;;;;;;36.65;5.78;;;;;;;4.33;99.07;101668.78;5015075;28;20047;-76
2023/02/01 07:36:59;;;;;;;30.17;3.80;;;;;;;4.36;99.05;101662.66;5019124;28;20099;-78
2023/02/01 07:39:24;;;;;;;26.70;4.10;;;;;;;4.32;99.31;101664.59;5013124;28;20030;-78
2023/02/01 07:41:50;;;;;;;24.27;5.18;;;;;;;4.22;99.27;101661.75;5002784;28;20033;-78
2023/02/01 07:44:16;;;;;;;30.75;6.05;;;;;;;4.22;99.55;101672.03;4991063;28;20025;-78
2023/02/01 07:46:43;;;;;;;17.77;3.95;;;;;;;4.29;99.35;101678.44;5008893;28;20030;-78
2023/02/01 07:49:08;;;;;;;26.10;3.97;;;;;;;4.29;99.84;101678.44;5026149;28;20025;-78
2023/02/01 07:51:34;;;;;;;30.52;4.22;;;;;;;4.31;99.85;101696.31;5008012;28;20057;-78
2023/02/01 07:53:59;;;;;;;26.55;4.20;;;;;;;4.36;99.34;101685.75;5004506;28;20390;-77
2023/02/01 07:56:25;;;;;;;30.58;3.38;;;;;;;4.43;99.02;101689.63;5020816;28;20117;-78
2023/02/01 07:58:52;;;;;;;31.35;7.00;;;;;;;4.39;98.60;101683.84;4994750;28;20041;-78
2023/02/01 08:01:20;;;;;;;29.90;3.90;;;;;;;4.43;98.42;101687.88;5003452;28;20565;-77
2023/02/01 08:03:48;;;;;;;30.00;3.58;;;;;;;4.49;98.39;101679.78;5010505;28;20084;-77
2023/02/01 08:06:13;;;;;;;31.83;5.35;;;;;;;4.46;98.39;101679.97;5012918;28;20103;-77
2023/02/01 08:08:39;;;;;;;37.58;4.15;;;;;;;4.46;98.49;101689.41;5004353;28;20372;-79
2023/02/01 08:11:06;;;;;;;32.75;5.32;;;;;;;4.49;98.16;101694.38;5005439;28;20037;-77
2023/02/01 08:13:35;;;;;;;29.08;4.22;;;;;;;4.43;98.26;101681.91;5016889;28;20136;-77
2023/02/01 08:16:03;;;;;;;31.77;4.65;;;;;;;4.48;98.25;101688.41;4991338;28;20487;-76
2023/02/01 08:18:28;;;;;;;35.45;4.00;;;;;;;4.47;98.26;101697.03;5022862;28;21732;-79
2023/02/01 08:20:54;;;;;;;23.95;3.20;;;;;;;4.56;97.87;101702.50;5008273;28;20040;-78
2023/02/01 08:23:21;;;;;;;29.52;4.95;;;;;;;4.58;97.90;101703.25;5024472;28;20042;-78
2023/02/01 08:25:46;;;;;;;29.67;3.75;;;;;;;4.54;97.43;101694.91;4992317;28;20045;-76
2023/02/01 08:28:12;;;;;;;28.08;4.95;;;;;;;4.48;97.83;101705.53;5021547;28;20048;-77
2023/02/01 08:30:38;;;;;;;37.92;4.22;;;;;;;4.52;97.84;101719.03;5019088;28;20096;-76
2023/02/01 08:33:08;;;;;;;32.80;4.90;;;;;;;4.59;97.87;101715.16;5019880;28;20045;-77
2023/02/01 08:35:38;;;;;;;24.00;4.53;;;;;;;4.69;97.25;101718.84;5011135;28;20086;-79
2023/02/01 08:38:04;;;;;;;30.75;4.13;;;;;;;4.68;97.47;101717.16;5007223;28;20045;-77
2023/02/01 08:40:31;;;;;;;30.80;6.10;;;;;;;4.73;97.13;101735.72;5023917;28;20628;-78
2023/02/01 08:42:56;;;;;;;32.85;3.97;;;;;;;4.73;96.13;101732.28;5014842;28;20049;-78
2023/02/01 08:45:29;;;;;;;31.85;4.57;;;;;;;4.72;96.50;101733.22;5011582;28;20033;-78
2023/02/01 08:47:55;;;;;;;22.70;4.47;;;;;;;4.74;96.85;101728.81;5016582;28;20133;-78
2023/02/01 08:50:22;;;;;;;24.17;4.72;;;;;;;4.92;96.17;101737.13;5025992;28;20032;-78
2023/02/01 08:52:47;;;;;;;24.83;4.53;;;;;;;4.98;95.67;101736.75;5003136;28;20087;-77
2023/02/01 08:55:14;;;;;;;40.08;5.25;;;;;;;4.91;96.28;101743.19;5004871;28;20458;-78
2023/02/01 08:57:39;;;;;;;29.48;3.83;;;;;;;4.89;96.15;101727.84;5012185;28;20564;-77
2023/02/01 09:00:09;;;;;;;32.75;3.88;;;;;;;4.88;96.02;101731.34;4998314;28;20038;-76
2023/02/01 09:02:35;;;;;;;30.55;5.18;;;;;;;4.92;95.31;101726.84;5010480;28;20778;-76
2023/02/01 09:05:00;;;;;;;33.17;4.55;;;;;;;4.95;95.63;101722.31;5008972;28;20037;-77
2023/02/01 09:07:26;;;;;;;25.98;4.25;;;;;;;4.84;95.95;101720.44;5023277;28;20036;-77
2023/02/01 09:09:54;;;;;;;34.72;5.45;;;;;;;4.88;95.55;101721.06;5021895;28;20041;-78
2023/02/01 09:12:20;;;;;;;29.67;5.15;;;;;;;4.81;95.78;101720.63;5009020;28;20033;-78
2023/02/01 09:14:45;;;;;;;35.55;5.82;;;;;;;4.78;96.04;101713.09;5024836;28;20096;-78
2023/02/01 09:17:10;;;;;;;34.17;5.10;;;;;;;4.80;96.32;101706.13;5005981;28;20045;-74
2023/02/01 09:19:36;;;;;;;27.83;5.15;;;;;;;4.95;95.89;101708.66;5021429;28;20021;-77
2023/02/01 09:22:01;;;;;;;24.60;5.35;;;;;;;5.11;95.35;101713.66;5005944;28;20056;-76
2023/02/01 09:24:27;;;;;;;34.83;5.60;;;;;;;5.19;94.49;101706.25;5019467;28;20040;-77
2023/02/01 09:26:53;;;;;;;22.70;3.92;;;;;;;5.11;94.71;101706.75;5005533;28;20087;-75
2023/02/01 09:29:18;;;;;;;28.80;5.13;;;;;;;5.23;94.87;101705.97;5005516;28;20544;-75
2023/02/01 09:31:44;;;;;;;34.22;6.22;;;;;;;5.21;94.58;101717.28;5006421;28;20091;-76
2023/02/01 09:34:09;;;;;;;50.22;14.15;;;;;;;5.16;94.73;101715.00;5019988;28;20036;-78
2023/02/01 09:36:35;;;;;;;49.33;13.35;;;;;;;5.26;94.35;101707.53;4998248;28;20041;-77
2023/02/01 09:39:01;;;;;;;33.90;7.47;;;;;;;5.29;94.03;101709.06;5025917;28;20042;-79
2023/02/01 09:41:58;;;;;;;60.17;15.82;;;;;;;5.23;94.61;101711.09;5005728;28;20042;-76
2023/02/01 09:44:45;;;;;;;113.63;30.92;;;;;;;5.26;94.57;101710.09;4987289;28;20045;-77
2023/02/01 09:47:17;;;;;;;94.53;27.40;;;;;;;5.17;94.48;101708.94;5006422;28;20038;-79
2023/02/01 09:50:09;;;;;;;48.53;13.02;;;;;;;5.18;94.33;101715.72;5007483;28;20038;-78
2023/02/01 09:52:41;;;;;;;46.85;10.98;;;;;;;5.25;93.99;101701.56;4985891;28;20050;-78
2023/02/01 09:55:38;;;;;;;31.80;7.30;;;;;;;5.28;94.29;101703.09;5025720;28;20036;-77
2023/02/01 09:58:06;;;;;;;30.90;8.07;;;;;;;5.31;93.57;101697.75;5002188;28;20141;-77
2023/02/01 10:00:38;;;;;;;33.90;4.43;;;;;;;5.47;93.47;101700.97;5008167;28;20095;-78
2023/02/01 10:03:04;;;;;;;27.80;5.23;;;;;;;5.45;93.03;101691.72;5017388;28;20069;-78
2023/02/01 10:05:43;;;;;;;37.70;6.63;;;;;;;5.54;92.69;101685.97;5021968;28;20037;-78
2023/02/01 10:08:26;;;;;;;20.90;4.68;;;;;;;5.64;92.10;101692.13;5004223;28;20045;-78
2023/02/01 10:10:58;;;;;;;25.67;4.57;;;;;;;5.61;92.30;101700.09;4994919;28;20034;-77
2023/02/01 10:13:31;;;;;;;21.85;4.55;;;;;;;5.71;91.78;101684.84;5001997;28;20041;-78
2023/02/01 10:16:06;;;;;;;25.83;3.80;;;;;;;5.73;91.23;101682.19;5006470;28;20040;-76
2023/02/01 10:18:51;;;;;;;29.00;6.10;;;;;;;5.89;90.25;101689.69;5005099;28;20152;-78
2023/02/01 10:21:39;;;;;;;22.60;4.28;;;;;;;5.93;90.30;101680.81;4998059;28;20040;-77
2023/02/01 10:24:36;;;;;;;14.32;3.20;;;;;;;5.92;90.41;101695.44;5005848;28;20088;-77
2023/02/01 10:27:17;;;;;;;25.98;4.75;;;;;;;5.98;90.16;101686.50;4986053;28;20045;-76
2023/02/01 10:29:46;;;;;;;18.63;3.97;;;;;;;6.05;89.86;101664.56;5016944;28;20037;-79
2023/02/01 10:32:24;;;;;;;28.20;5.32;;;;;;;6.04;89.20;101674.03;5022084;28;20372;-78
2023/02/01 10:34:57;;;;;;;23.05;3.45;;;;;;;6.16;88.92;101684.41;5007932;28;20488;-78
2023/02/01 10:37:27;;;;;;;20.83;5.18;;;;;;;6.18;88.57;101692.88;5020618;28;20736;-77
2023/02/01 10:39:55;;;;;;;33.95;6.60;;;;;;;6.16;88.34;101682.69;5014781;28;20100;-78
2023/02/01 10:42:25;;;;;;;52.53;12.77;;;;;;;6.17;87.60;101684.31;5007971;28;20045;-75
2023/02/01 10:44:52;;;;;;;42.40;6.97;;;;;;;6.12;87.92;101683.84;4993629;28;20092;-76
2023/02/01 10:47:18;;;;;;;52.90;13.95;;;;;;;6.18;87.74;101692.88;5020398;28;20561;-75
2023/02/01 10:50:14;;;;;;;42.28;10.27;;;;;;;6.11;87.55;101686.50;5013249;28;20045;-77
2023/02/01 10:52:53;;;;;;;34.90;7.40;;;;;;;6.04;87.29;101691.25;5011499;28;20483;-76
2023/02/01 10:55:29;;;;;;;21.38;4.15;;;;;;;6.16;88.15;101695.56;5012669;28;20128;-78
2023/02/01 10:58:03;;;;;;;29.52;4.15;;;;;;;6.12;88.15;101685.56;5010341;28;20041;-78
2023/02/01 11:00:39;;;;;;;23.10;3.50;;;;;;;6.09;88.23;101689.19;5008393;28;20048;-76
2023/02/01 11:03:30;;;;;;;28.30;4.25;;;;;;;6.22;87.55;101673.72;5012084;28;20461;-77
2023/02/01 11:05:56;;;;;;;25.50;4.63;;;;;;;6.25;87.57;101678.63;5012999;28;20044;-75
2023/02/01 11:08:22;;;;;;;26.42;4.65;;;;;;;6.32;87.31;101677.28;4993239;28;20037;-78
2023/02/01 11:10:57;;;;;;;19.40;3.80;;;;;;;6.40;87.26;101672.44;5008236;28;20069;-77
2023/02/01 11:13:29;;;;;;;24.73;4.80;;;;;;;6.35;87.27;101676.28;5011842;28;20124;-77
2023/02/01 11:15:56;;;;;;;31.20;3.78;;;;;;;6.40;87.25;101674.16;5014808;28;20048;-77
2023/02/01 11:18:27;;;;;;;16.15;4.03;;;;;;;6.37;87.09;101659.75;5028228;28;20067;-75
2023/02/01 11:20:54;;;;;;;20.40;3.33;;;;;;;6.22;86.91;101666.81;5008565;28;20509;-75
2023/02/01 11:23:23;;;;;;;20.90;4.10;;;;;;;6.27;86.79;101660.50;5026673;28;20056;-77
2023/02/01 11:25:52;;;;;;;28.20;5.97;;;;;;;6.21;86.30;101657.41;5026747;28;20026;-76
2023/02/01 11:28:22;;;;;;;23.45;3.78;;;;;;;6.24;86.91;101646.09;5013615;28;20461;-77
2023/02/01 11:30:48;;;;;;;31.08;5.72;;;;;;;6.27;87.69;101645.88;5010783;28;20041;-77
2023/02/01 11:33:17;;;;;;;42.45;10.88;;;;;;;6.32;86.80;101640.41;5007444;28;20049;-77
2023/02/01 11:35:44;;;;;;;44.53;11.20;;;;;;;6.30;86.73;101640.50;5016232;28;20117;-77
2023/02/01 11:38:32;;;;;;;44.38;11.30;;;;;;;6.28;86.25;101632.06;5011231;28;20127;-76
2023/02/01 11:41:20;;;;;;;37.35;8.23;;;;;;;6.29;86.00;101641.44;5011637;28;20029;-79
2023/02/01 11:43:58;;;;;;;31.77;6.00;;;;;;;6.27;86.67;101632.97;5017306;28;20041;-76
2023/02/01 11:46:41;;;;;;;25.08;4.68;;;;;;;6.25;86.00;101637.41;5008589;28;20604;-78
2023/02/01 11:49:27;;;;;;;31.00;5.75;;;;;;;6.23;86.59;101634.97;5007958;28;20799;-79
2023/02/01 11:52:14;;;;;;;37.67;5.63;;;;;;;6.26;86.12;101621.06;5010841;28;20474;-76
2023/02/01 11:55:06;;;;;;;34.35;6.43;;;;;;;6.23;86.59;101627.25;5022778;28;20030;-77
2023/02/01 11:57:55;;;;;;;21.98;5.82;;;;;;;6.30;86.54;101629.38;5022047;28;20072;-81
2023/02/01 12:00:57;;;;;;;22.00;4.85;;;;;;;6.23;86.47;101626.41;5032442;28;20044;-78